sensor_id;sensor_type;location;lat;lon;timestamp;P1;durP1;ratioP1;P2;durP2;ratioP2
18249;SDS011;27980;52.126;5.572;2024-01-30T00:00:46;16.85;;;10.68;;
18249;SDS011;27980;52.126;5.572;2024-01-30T00:03:13;15.45;;;10.43;;
18249;SDS011;27980;52.126;5.572;2024-01-30T00:05:40;18.13;;;10.85;;
18249;SDS011;27980;52.126;5.572;2024-01-30T00:08:08;15.60;;;10.15;;
18249;SDS011;27980;52.126;5.572;2024-01-30T00:10:35;16.98;;;10.68;;
18249;SDS011;27980;52.126;5.572;2024-01-30T00:13:01;18.40;;;10.75;;
18249;SDS011;27980;52.126;5.572;2024-01-30T00:15:28;17.98;;;10.82;;
18249;SDS011;27980;52.126;5.572;2024-01-30T00:17:54;16.30;;;10.85;;
18249;SDS011;27980;52.126;5.572;2024-01-30T00:20:21;21.40;;;11.02;;
18249;SDS011;27980;52.126;5.572;2024-01-30T00:22:48;18.60;;;11.02;;
18249;SDS011;27980;52.126;5.572;2024-01-30T00:25:16;14.55;;;9.32;;
18249;SDS011;27980;52.126;5.572;2024-01-30T00:27:43;15.82;;;10.60;;
18249;SDS011;27980;52.126;5.572;2024-01-30T00:30:10;14.10;;;10.07;;
18249;SDS011;27980;52.126;5.572;2024-01-30T00:32:36;19.98;;;10.80;;
18249;SDS011;27980;52.126;5.572;2024-01-30T00:35:03;16.52;;;9.55;;
18249;SDS011;27980;52.126;5.572;2024-01-30T00:37:29;18.27;;;10.23;;
18249;SDS011;27980;52.126;5.572;2024-01-30T00:39:56;16.65;;;9.93;;
18249;SDS011;27980;52.126;5.572;2024-01-30T00:42:24;15.35;;;9.77;;
18249;SDS011;27980;52.126;5.572;2024-01-30T00:44:51;15.25;;;10.45;;
18249;SDS011;27980;52.126;5.572;2024-01-30T00:47:17;16.15;;;10.18;;
18249;SDS011;27980;52.126;5.572;2024-01-30T00:49:44;14.55;;;8.88;;
18249;SDS011;27980;52.126;5.572;2024-01-30T00:52:11;17.40;;;9.98;;
18249;SDS011;27980;52.126;5.572;2024-01-30T00:54:37;17.00;;;9.80;;
18249;SDS011;27980;52.126;5.572;2024-01-30T00:57:04;18.77;;;10.60;;
18249;SDS011;27980;52.126;5.572;2024-01-30T00:59:32;17.20;;;9.70;;
18249;SDS011;27980;52.126;5.572;2024-01-30T01:01:58;14.70;;;9.52;;
18249;SDS011;27980;52.126;5.572;2024-01-30T01:04:24;16.50;;;9.95;;
18249;SDS011;27980;52.126;5.572;2024-01-30T01:06:51;17.55;;;10.30;;
18249;SDS011;27980;52.126;5.572;2024-01-30T01:09:18;14.90;;;9.63;;
18249;SDS011;27980;52.126;5.572;2024-01-30T01:11:44;13.50;;;9.73;;
18249;SDS011;27980;52.126;5.572;2024-01-30T01:14:11;16.30;;;9.32;;
18249;SDS011;27980;52.126;5.572;2024-01-30T01:16:38;17.85;;;9.48;;
18249;SDS011;27980;52.126;5.572;2024-01-30T01:19:05;21.20;;;10.27;;
18249;SDS011;27980;52.126;5.572;2024-01-30T01:21:31;18.05;;;10.48;;
18249;SDS011;27980;52.126;5.572;2024-01-30T01:23:58;16.23;;;9.35;;
18249;SDS011;27980;52.126;5.572;2024-01-30T01:26:24;14.45;;;9.23;;
18249;SDS011;27980;52.126;5.572;2024-01-30T01:28:50;13.93;;;9.30;;
18249;SDS011;27980;52.126;5.572;2024-01-30T01:31:17;15.45;;;9.60;;
18249;SDS011;27980;52.126;5.572;2024-01-30T01:33:45;13.82;;;9.32;;
18249;SDS011;27980;52.126;5.572;2024-01-30T01:36:11;15.68;;;9.82;;
18249;SDS011;27980;52.126;5.572;2024-01-30T01:38:37;19.60;;;9.80;;
18249;SDS011;27980;52.126;5.572;2024-01-30T01:41:04;16.88;;;9.23;;
18249;SDS011;27980;52.126;5.572;2024-01-30T01:43:30;13.45;;;9.23;;
18249;SDS011;27980;52.126;5.572;2024-01-30T01:45:58;16.02;;;9.07;;
18249;SDS011;27980;52.126;5.572;2024-01-30T01:48:25;16.00;;;9.85;;
18249;SDS011;27980;52.126;5.572;2024-01-30T01:50:53;14.48;;;8.77;;
18249;SDS011;27980;52.126;5.572;2024-01-30T01:53:19;14.68;;;8.63;;
18249;SDS011;27980;52.126;5.572;2024-01-30T01:55:45;15.65;;;9.20;;
18249;SDS011;27980;52.126;5.572;2024-01-30T01:58:12;14.27;;;9.15;;
18249;SDS011;27980;52.126;5.572;2024-01-30T02:00:38;13.88;;;9.18;;
18249;SDS011;27980;52.126;5.572;2024-01-30T02:03:06;16.33;;;8.75;;
18249;SDS011;27980;52.126;5.572;2024-01-30T02:05:34;15.82;;;9.07;;
18249;SDS011;27980;52.126;5.572;2024-01-30T02:08:02;14.07;;;9.55;;
18249;SDS011;27980;52.126;5.572;2024-01-30T02:10:29;13.70;;;8.88;;
18249;SDS011;27980;52.126;5.572;2024-01-30T02:12:55;16.85;;;9.32;;
18249;SDS011;27980;52.126;5.572;2024-01-30T02:15:21;15.98;;;9.27;;
18249;SDS011;27980;52.126;5.572;2024-01-30T02:17:48;21.95;;;11.15;;
18249;SDS011;27980;52.126;5.572;2024-01-30T02:20:14;15.52;;;9.02;;
18249;SDS011;27980;52.126;5.572;2024-01-30T02:22:42;14.35;;;8.88;;
18249;SDS011;27980;52.126;5.572;2024-01-30T02:25:09;12.95;;;9.13;;
18249;SDS011;27980;52.126;5.572;2024-01-30T02:27:35;16.33;;;9.15;;
18249;SDS011;27980;52.126;5.572;2024-01-30T02:30:02;15.48;;;9.55;;
18249;SDS011;27980;52.126;5.572;2024-01-30T02:32:29;16.25;;;9.07;;
18249;SDS011;27980;52.126;5.572;2024-01-30T02:34:55;16.65;;;9.27;;
18249;SDS011;27980;52.126;5.572;2024-01-30T02:37:21;14.68;;;9.35;;
18249;SDS011;27980;52.126;5.572;2024-01-30T02:39:49;15.35;;;9.57;;
18249;SDS011;27980;52.126;5.572;2024-01-30T02:42:16;14.18;;;9.65;;
18249;SDS011;27980;52.126;5.572;2024-01-30T02:44:42;15.05;;;8.73;;
18249;SDS011;27980;52.126;5.572;2024-01-30T02:47:09;14.75;;;8.90;;
18249;SDS011;27980;52.126;5.572;2024-01-30T02:49:35;15.13;;;8.98;;
18249;SDS011;27980;52.126;5.572;2024-01-30T02:52:01;15.98;;;9.25;;
18249;SDS011;27980;52.126;5.572;2024-01-30T02:54:28;17.83;;;9.82;;
18249;SDS011;27980;52.126;5.572;2024-01-30T02:56:57;14.75;;;9.65;;
18249;SDS011;27980;52.126;5.572;2024-01-30T02:59:24;16.58;;;9.68;;
18249;SDS011;27980;52.126;5.572;2024-01-30T03:01:51;15.32;;;9.27;;
18249;SDS011;27980;52.126;5.572;2024-01-30T03:04:17;15.45;;;9.43;;
18249;SDS011;27980;52.126;5.572;2024-01-30T03:06:47;12.98;;;8.63;;
18249;SDS011;27980;52.126;5.572;2024-01-30T03:09:13;18.88;;;9.82;;
18249;SDS011;27980;52.126;5.572;2024-01-30T03:11:39;17.05;;;8.75;;
18249;SDS011;27980;52.126;5.572;2024-01-30T03:14:07;15.07;;;8.98;;
18249;SDS011;27980;52.126;5.572;2024-01-30T03:16:37;13.32;;;9.20;;
18249;SDS011;27980;52.126;5.572;2024-01-30T03:19:04;14.73;;;9.02;;
18249;SDS011;27980;52.126;5.572;2024-01-30T03:21:31;16.10;;;9.00;;
18249;SDS011;27980;52.126;5.572;2024-01-30T03:23:57;15.00;;;8.35;;
18249;SDS011;27980;52.126;5.572;2024-01-30T03:26:24;17.25;;;8.65;;
18249;SDS011;27980;52.126;5.572;2024-01-30T03:28:50;16.70;;;9.27;;
18249;SDS011;27980;52.126;5.572;2024-01-30T03:31:20;19.70;;;8.93;;
18249;SDS011;27980;52.126;5.572;2024-01-30T03:33:47;12.55;;;7.78;;
18249;SDS011;27980;52.126;5.572;2024-01-30T03:36:14;13.57;;;8.95;;
18249;SDS011;27980;52.126;5.572;2024-01-30T03:38:41;13.52;;;8.43;;
18249;SDS011;27980;52.126;5.572;2024-01-30T03:41:07;14.07;;;8.43;;
18249;SDS011;27980;52.126;5.572;2024-01-30T03:43:36;14.05;;;8.95;;
18249;SDS011;27980;52.126;5.572;2024-01-30T03:46:03;13.60;;;9.38;;
18249;SDS011;27980;52.126;5.572;2024-01-30T03:48:31;11.55;;;8.43;;
18249;SDS011;27980;52.126;5.572;2024-01-30T03:50:57;15.23;;;9.43;;
18249;SDS011;27980;52.126;5.572;2024-01-30T03:53:24;12.98;;;9.13;;
18249;SDS011;27980;52.126;5.572;2024-01-30T03:55:50;15.73;;;8.10;;
18249;SDS011;27980;52.126;5.572;2024-01-30T03:58:17;16.00;;;10.25;;
18249;SDS011;27980;52.126;5.572;2024-01-30T04:00:43;12.90;;;8.45;;
18249;SDS011;27980;52.126;5.572;2024-01-30T04:03:09;16.08;;;9.50;;
18249;SDS011;27980;52.126;5.572;2024-01-30T04:05:37;17.35;;;8.73;;
18249;SDS011;27980;52.126;5.572;2024-01-30T04:08:04;13.73;;;8.25;;
18249;SDS011;27980;52.126;5.572;2024-01-30T04:10:30;12.30;;;8.25;;
18249;SDS011;27980;52.126;5.572;2024-01-30T04:12:59;13.00;;;8.32;;
18249;SDS011;27980;52.126;5.572;2024-01-30T04:15:25;16.17;;;9.25;;
18249;SDS011;27980;52.126;5.572;2024-01-30T04:17:52;15.02;;;8.73;;
18249;SDS011;27980;52.126;5.572;2024-01-30T04:20:18;14.75;;;8.27;;
18249;SDS011;27980;52.126;5.572;2024-01-30T04:22:46;13.65;;;8.75;;
18249;SDS011;27980;52.126;5.572;2024-01-30T04:25:13;14.45;;;8.50;;
18249;SDS011;27980;52.126;5.572;2024-01-30T04:27:39;15.52;;;8.95;;
18249;SDS011;27980;52.126;5.572;2024-01-30T04:30:06;11.90;;;8.48;;
18249;SDS011;27980;52.126;5.572;2024-01-30T04:32:33;13.60;;;8.82;;
18249;SDS011;27980;52.126;5.572;2024-01-30T04:34:59;14.85;;;8.55;;
18249;SDS011;27980;52.126;5.572;2024-01-30T04:37:26;14.02;;;8.48;;
18249;SDS011;27980;52.126;5.572;2024-01-30T04:39:54;13.30;;;8.45;;
18249;SDS011;27980;52.126;5.572;2024-01-30T04:42:20;15.95;;;8.65;;
18249;SDS011;27980;52.126;5.572;2024-01-30T04:44:47;12.52;;;7.60;;
18249;SDS011;27980;52.126;5.572;2024-01-30T04:47:13;15.23;;;7.38;;
18249;SDS011;27980;52.126;5.572;2024-01-30T04:49:39;11.82;;;7.20;;
18249;SDS011;27980;52.126;5.572;2024-01-30T04:52:06;13.40;;;8.35;;
18249;SDS011;27980;52.126;5.572;2024-01-30T04:54:32;10.48;;;7.80;;
18249;SDS011;27980;52.126;5.572;2024-01-30T04:57:01;10.07;;;7.18;;
18249;SDS011;27980;52.126;5.572;2024-01-30T04:59:28;13.25;;;7.63;;
18249;SDS011;27980;52.126;5.572;2024-01-30T05:01:54;11.38;;;7.53;;
18249;SDS011;27980;52.126;5.572;2024-01-30T05:04:21;13.32;;;6.47;;
18249;SDS011;27980;52.126;5.572;2024-01-30T05:06:47;10.80;;;6.57;;
18249;SDS011;27980;52.126;5.572;2024-01-30T05:09:14;9.90;;;6.85;;
18249;SDS011;27980;52.126;5.572;2024-01-30T05:11:40;12.95;;;7.60;;
18249;SDS011;27980;52.126;5.572;2024-01-30T05:14:08;12.15;;;8.20;;
18249;SDS011;27980;52.126;5.572;2024-01-30T05:16:36;9.98;;;7.03;;
18249;SDS011;27980;52.126;5.572;2024-01-30T05:19:03;10.63;;;7.50;;
18249;SDS011;27980;52.126;5.572;2024-01-30T05:21:29;13.63;;;8.07;;
18249;SDS011;27980;52.126;5.572;2024-01-30T05:23:55;11.07;;;7.28;;
18249;SDS011;27980;52.126;5.572;2024-01-30T05:26:22;11.45;;;7.80;;
18249;SDS011;27980;52.126;5.572;2024-01-30T05:28:49;12.27;;;7.85;;
18249;SDS011;27980;52.126;5.572;2024-01-30T05:31:16;10.25;;;7.43;;
18249;SDS011;27980;52.126;5.572;2024-01-30T05:33:43;11.63;;;7.68;;
18249;SDS011;27980;52.126;5.572;2024-01-30T05:36:11;13.77;;;7.97;;
18249;SDS011;27980;52.126;5.572;2024-01-30T05:38:37;10.60;;;7.07;;
18249;SDS011;27980;52.126;5.572;2024-01-30T05:41:06;10.65;;;7.22;;
18249;SDS011;27980;52.126;5.572;2024-01-30T05:43:32;11.02;;;7.63;;
18249;SDS011;27980;52.126;5.572;2024-01-30T05:45:58;11.73;;;7.53;;
18249;SDS011;27980;52.126;5.572;2024-01-30T05:48:27;10.05;;;7.15;;
18249;SDS011;27980;52.126;5.572;2024-01-30T05:50:53;12.35;;;7.43;;
18249;SDS011;27980;52.126;5.572;2024-01-30T05:53:19;12.02;;;7.60;;
18249;SDS011;27980;52.126;5.572;2024-01-30T05:55:46;12.02;;;8.10;;
18249;SDS011;27980;52.126;5.572;2024-01-30T05:58:12;13.82;;;8.07;;
18249;SDS011;27980;52.126;5.572;2024-01-30T06:00:39;15.25;;;7.63;;
18249;SDS011;27980;52.126;5.572;2024-01-30T06:03:05;15.10;;;8.05;;
18249;SDS011;27980;52.126;5.572;2024-01-30T06:05:33;14.52;;;8.00;;
18249;SDS011;27980;52.126;5.572;2024-01-30T06:07:59;11.95;;;7.55;;
18249;SDS011;27980;52.126;5.572;2024-01-30T06:10:25;11.68;;;7.70;;
18249;SDS011;27980;52.126;5.572;2024-01-30T06:12:52;12.18;;;7.20;;
18249;SDS011;27980;52.126;5.572;2024-01-30T06:15:18;13.68;;;7.35;;
18249;SDS011;27980;52.126;5.572;2024-01-30T06:17:45;18.88;;;7.85;;
18249;SDS011;27980;52.126;5.572;2024-01-30T06:20:12;11.65;;;7.30;;
18249;SDS011;27980;52.126;5.572;2024-01-30T06:22:40;10.90;;;6.95;;
18249;SDS011;27980;52.126;5.572;2024-01-30T06:25:07;11.85;;;7.85;;
18249;SDS011;27980;52.126;5.572;2024-01-30T06:27:33;14.35;;;8.05;;
18249;SDS011;27980;52.126;5.572;2024-01-30T06:29:59;14.50;;;9.10;;
18249;SDS011;27980;52.126;5.572;2024-01-30T06:32:26;14.63;;;9.23;;
18249;SDS011;27980;52.126;5.572;2024-01-30T06:34:53;11.55;;;7.55;;
18249;SDS011;27980;52.126;5.572;2024-01-30T06:37:20;12.85;;;8.40;;
18249;SDS011;27980;52.126;5.572;2024-01-30T06:39:48;14.20;;;8.70;;
18249;SDS011;27980;52.126;5.572;2024-01-30T06:42:14;9.88;;;7.10;;
18249;SDS011;27980;52.126;5.572;2024-01-30T06:44:41;15.05;;;8.65;;
18249;SDS011;27980;52.126;5.572;2024-01-30T06:47:07;12.82;;;7.80;;
18249;SDS011;27980;52.126;5.572;2024-01-30T06:49:33;16.33;;;7.82;;
18249;SDS011;27980;52.126;5.572;2024-01-30T06:52:03;10.32;;;7.07;;
18249;SDS011;27980;52.126;5.572;2024-01-30T06:54:30;13.23;;;8.20;;
18249;SDS011;27980;52.126;5.572;2024-01-30T06:56:57;15.23;;;7.75;;
18249;SDS011;27980;52.126;5.572;2024-01-30T06:59:24;12.10;;;7.40;;
18249;SDS011;27980;52.126;5.572;2024-01-30T07:01:50;15.48;;;8.32;;
18249;SDS011;27980;52.126;5.572;2024-01-30T07:04:17;12.30;;;7.45;;
18249;SDS011;27980;52.126;5.572;2024-01-30T07:06:43;11.00;;;7.18;;
18249;SDS011;27980;52.126;5.572;2024-01-30T07:09:10;13.20;;;7.82;;
18249;SDS011;27980;52.126;5.572;2024-01-30T07:11:36;13.45;;;7.47;;
18249;SDS011;27980;52.126;5.572;2024-01-30T07:14:04;12.80;;;8.27;;
18249;SDS011;27980;52.126;5.572;2024-01-30T07:16:30;15.98;;;8.75;;
18249;SDS011;27980;52.126;5.572;2024-01-30T07:18:56;17.63;;;9.55;;
18249;SDS011;27980;52.126;5.572;2024-01-30T07:21:23;13.50;;;8.38;;
18249;SDS011;27980;52.126;5.572;2024-01-30T07:23:53;12.45;;;7.35;;
18249;SDS011;27980;52.126;5.572;2024-01-30T07:26:19;12.20;;;7.30;;
18249;SDS011;27980;52.126;5.572;2024-01-30T07:28:46;10.88;;;7.22;;
18249;SDS011;27980;52.126;5.572;2024-01-30T07:31:14;12.38;;;7.10;;
18249;SDS011;27980;52.126;5.572;2024-01-30T07:33:40;13.77;;;7.30;;
18249;SDS011;27980;52.126;5.572;2024-01-30T07:36:06;14.88;;;7.00;;
18249;SDS011;27980;52.126;5.572;2024-01-30T07:38:33;7.95;;;6.20;;
18249;SDS011;27980;52.126;5.572;2024-01-30T07:41:00;13.90;;;7.18;;
18249;SDS011;27980;52.126;5.572;2024-01-30T07:43:26;11.88;;;6.72;;
18249;SDS011;27980;52.126;5.572;2024-01-30T07:45:53;9.75;;;6.50;;
18249;SDS011;27980;52.126;5.572;2024-01-30T07:48:20;12.43;;;7.10;;
18249;SDS011;27980;52.126;5.572;2024-01-30T07:50:47;11.05;;;6.22;;
18249;SDS011;27980;52.126;5.572;2024-01-30T07:53:13;9.65;;;6.32;;
18249;SDS011;27980;52.126;5.572;2024-01-30T07:55:40;8.88;;;6.43;;
18249;SDS011;27980;52.126;5.572;2024-01-30T07:58:08;12.18;;;7.03;;
18249;SDS011;27980;52.126;5.572;2024-01-30T08:00:35;9.90;;;6.10;;
18249;SDS011;27980;52.126;5.572;2024-01-30T08:03:02;13.63;;;6.25;;
18249;SDS011;27980;52.126;5.572;2024-01-30T08:05:30;10.02;;;6.28;;
18249;SDS011;27980;52.126;5.572;2024-01-30T08:07:57;8.70;;;6.28;;
18249;SDS011;27980;52.126;5.572;2024-01-30T08:10:23;11.05;;;5.97;;
18249;SDS011;27980;52.126;5.572;2024-01-30T08:12:49;14.93;;;7.05;;
18249;SDS011;27980;52.126;5.572;2024-01-30T08:15:16;10.95;;;5.68;;
18249;SDS011;27980;52.126;5.572;2024-01-30T08:17:43;7.75;;;5.57;;
18249;SDS011;27980;52.126;5.572;2024-01-30T08:20:10;11.82;;;6.07;;
18249;SDS011;27980;52.126;5.572;2024-01-30T08:22:39;11.00;;;6.20;;
18249;SDS011;27980;52.126;5.572;2024-01-30T08:25:06;14.10;;;6.72;;
18249;SDS011;27980;52.126;5.572;2024-01-30T08:27:32;10.25;;;6.47;;
18249;SDS011;27980;52.126;5.572;2024-01-30T08:30:00;11.25;;;5.88;;
18249;SDS011;27980;52.126;5.572;2024-01-30T08:32:26;9.85;;;6.63;;
18249;SDS011;27980;52.126;5.572;2024-01-30T08:34:53;9.88;;;6.47;;
18249;SDS011;27980;52.126;5.572;2024-01-30T08:37:19;10.52;;;6.15;;
18249;SDS011;27980;52.126;5.572;2024-01-30T08:39:47;10.52;;;6.32;;
18249;SDS011;27980;52.126;5.572;2024-01-30T08:42:14;11.20;;;6.20;;
18249;SDS011;27980;52.126;5.572;2024-01-30T08:44:43;14.27;;;6.70;;
18249;SDS011;27980;52.126;5.572;2024-01-30T08:47:09;10.55;;;6.40;;
18249;SDS011;27980;52.126;5.572;2024-01-30T08:49:36;10.95;;;6.70;;
18249;SDS011;27980;52.126;5.572;2024-01-30T08:52:02;11.75;;;6.63;;
18249;SDS011;27980;52.126;5.572;2024-01-30T08:54:29;8.75;;;5.38;;
18249;SDS011;27980;52.126;5.572;2024-01-30T08:56:56;11.50;;;6.18;;
18249;SDS011;27980;52.126;5.572;2024-01-30T08:59:23;10.55;;;5.95;;
18249;SDS011;27980;52.126;5.572;2024-01-30T09:01:48;13.43;;;6.15;;
18249;SDS011;27980;52.126;5.572;2024-01-30T09:04:18;9.90;;;6.18;;
18249;SDS011;27980;52.126;5.572;2024-01-30T09:06:45;9.73;;;6.20;;
18249;SDS011;27980;52.126;5.572;2024-01-30T09:09:11;10.18;;;6.47;;
18249;SDS011;27980;52.126;5.572;2024-01-30T09:11:37;8.80;;;5.68;;
18249;SDS011;27980;52.126;5.572;2024-01-30T09:14:05;10.60;;;6.00;;
18249;SDS011;27980;52.126;5.572;2024-01-30T09:16:31;11.05;;;6.50;;
18249;SDS011;27980;52.126;5.572;2024-01-30T09:18:58;12.18;;;6.10;;
18249;SDS011;27980;52.126;5.572;2024-01-30T09:21:24;11.35;;;6.43;;
18249;SDS011;27980;52.126;5.572;2024-01-30T09:23:52;12.55;;;6.25;;
18249;SDS011;27980;52.126;5.572;2024-01-30T09:26:18;14.27;;;7.15;;
18249;SDS011;27980;52.126;5.572;2024-01-30T09:28:44;10.35;;;6.22;;
18249;SDS011;27980;52.126;5.572;2024-01-30T09:31:12;11.50;;;6.53;;
18249;SDS011;27980;52.126;5.572;2024-01-30T09:33:38;9.70;;;6.20;;
18249;SDS011;27980;52.126;5.572;2024-01-30T09:36:05;12.95;;;6.05;;
18249;SDS011;27980;52.126;5.572;2024-01-30T09:38:32;12.10;;;6.80;;
18249;SDS011;27980;52.126;5.572;2024-01-30T09:41:00;12.65;;;6.40;;
18249;SDS011;27980;52.126;5.572;2024-01-30T09:43:30;10.68;;;6.18;;
18249;SDS011;27980;52.126;5.572;2024-01-30T09:45:59;10.48;;;6.07;;
18249;SDS011;27980;52.126;5.572;2024-01-30T09:48:27;13.07;;;6.32;;
18249;SDS011;27980;52.126;5.572;2024-01-30T09:50:54;11.15;;;6.45;;
18249;SDS011;27980;52.126;5.572;2024-01-30T09:53:20;12.30;;;6.18;;
18249;SDS011;27980;52.126;5.572;2024-01-30T09:55:48;10.35;;;6.30;;
18249;SDS011;27980;52.126;5.572;2024-01-30T09:58:16;13.27;;;6.10;;
18249;SDS011;27980;52.126;5.572;2024-01-30T10:00:42;10.45;;;6.05;;
18249;SDS011;27980;52.126;5.572;2024-01-30T10:03:10;9.38;;;5.75;;
18249;SDS011;27980;52.126;5.572;2024-01-30T10:05:41;11.23;;;5.80;;
18249;SDS011;27980;52.126;5.572;2024-01-30T10:08:11;11.00;;;5.95;;
18249;SDS011;27980;52.126;5.572;2024-01-30T10:10:38;12.85;;;7.43;;
18249;SDS011;27980;52.126;5.572;2024-01-30T10:13:04;14.27;;;6.82;;
18249;SDS011;27980;52.126;5.572;2024-01-30T10:15:30;10.70;;;5.80;;
18249;SDS011;27980;52.126;5.572;2024-01-30T10:17:57;13.52;;;6.50;;
18249;SDS011;27980;52.126;5.572;2024-01-30T10:20:24;9.52;;;5.93;;
18249;SDS011;27980;52.126;5.572;2024-01-30T10:22:52;9.15;;;6.20;;
18249;SDS011;27980;52.126;5.572;2024-01-30T10:25:18;10.57;;;6.05;;
18249;SDS011;27980;52.126;5.572;2024-01-30T10:27:45;12.80;;;5.75;;
18249;SDS011;27980;52.126;5.572;2024-01-30T10:30:11;10.43;;;5.30;;
18249;SDS011;27980;52.126;5.572;2024-01-30T10:32:38;11.75;;;5.78;;
18249;SDS011;27980;52.126;5.572;2024-01-30T10:35:04;11.65;;;6.22;;
18249;SDS011;27980;52.126;5.572;2024-01-30T10:37:34;9.77;;;5.95;;
18249;SDS011;27980;52.126;5.572;2024-01-30T10:40:03;11.25;;;6.00;;
18249;SDS011;27980;52.126;5.572;2024-01-30T10:42:31;9.75;;;5.85;;
18249;SDS011;27980;52.126;5.572;2024-01-30T10:45:00;12.65;;;5.65;;
18249;SDS011;27980;52.126;5.572;2024-01-30T10:47:26;9.13;;;5.65;;
18249;SDS011;27980;52.126;5.572;2024-01-30T10:49:54;14.50;;;5.60;;
18249;SDS011;27980;52.126;5.572;2024-01-30T10:52:21;9.38;;;5.35;;
18249;SDS011;27980;52.126;5.572;2024-01-30T10:54:49;8.68;;;5.25;;
18249;SDS011;27980;52.126;5.572;2024-01-30T10:57:17;11.52;;;6.07;;
18249;SDS011;27980;52.126;5.572;2024-01-30T10:59:44;13.43;;;6.05;;
18249;SDS011;27980;52.126;5.572;2024-01-30T11:02:12;11.63;;;5.40;;
18249;SDS011;27980;52.126;5.572;2024-01-30T11:04:40;9.32;;;5.32;;
18249;SDS011;27980;52.126;5.572;2024-01-30T11:07:16;10.38;;;5.20;;
18249;SDS011;27980;52.126;5.572;2024-01-30T11:09:48;9.27;;;5.28;;
18249;SDS011;27980;52.126;5.572;2024-01-30T11:12:14;8.70;;;5.65;;
18249;SDS011;27980;52.126;5.572;2024-01-30T11:14:42;7.75;;;4.60;;
18249;SDS011;27980;52.126;5.572;2024-01-30T11:17:09;8.68;;;6.00;;
18249;SDS011;27980;52.126;5.572;2024-01-30T11:19:37;7.93;;;4.95;;
18249;SDS011;27980;52.126;5.572;2024-01-30T11:22:03;8.65;;;5.75;;
18249;SDS011;27980;52.126;5.572;2024-01-30T11:24:36;8.30;;;5.45;;
18249;SDS011;27980;52.126;5.572;2024-01-30T11:27:03;8.02;;;4.80;;
18249;SDS011;27980;52.126;5.572;2024-01-30T11:29:34;9.48;;;4.88;;
18249;SDS011;27980;52.126;5.572;2024-01-30T11:32:01;9.52;;;5.15;;
18249;SDS011;27980;52.126;5.572;2024-01-30T11:34:28;6.43;;;4.70;;
18249;SDS011;27980;52.126;5.572;2024-01-30T11:36:55;6.43;;;4.43;;
18249;SDS011;27980;52.126;5.572;2024-01-30T11:39:24;10.13;;;5.53;;
18249;SDS011;27980;52.126;5.572;2024-01-30T11:41:51;5.15;;;3.85;;
18249;SDS011;27980;52.126;5.572;2024-01-30T11:44:18;9.43;;;3.67;;
18249;SDS011;27980;52.126;5.572;2024-01-30T11:46:45;6.72;;;3.50;;
18249;SDS011;27980;52.126;5.572;2024-01-30T11:49:13;7.20;;;3.38;;
18249;SDS011;27980;52.126;5.572;2024-01-30T11:51:39;11.27;;;4.18;;
18249;SDS011;27980;52.126;5.572;2024-01-30T11:54:07;5.78;;;3.42;;
18249;SDS011;27980;52.126;5.572;2024-01-30T11:56:33;7.20;;;3.05;;
18249;SDS011;27980;52.126;5.572;2024-01-30T11:59:00;4.53;;;3.30;;
18249;SDS011;27980;52.126;5.572;2024-01-30T12:01:27;6.97;;;3.25;;
18249;SDS011;27980;52.126;5.572;2024-01-30T12:03:53;3.63;;;2.25;;
18249;SDS011;27980;52.126;5.572;2024-01-30T12:06:23;6.65;;;2.75;;
18249;SDS011;27980;52.126;5.572;2024-01-30T12:08:56;5.57;;;2.25;;
18249;SDS011;27980;52.126;5.572;2024-01-30T12:11:23;6.43;;;2.88;;
18249;SDS011;27980;52.126;5.572;2024-01-30T12:13:49;6.25;;;1.80;;
18249;SDS011;27980;52.126;5.572;2024-01-30T12:16:17;6.35;;;2.00;;
18249;SDS011;27980;52.126;5.572;2024-01-30T12:18:43;4.60;;;2.30;;
18249;SDS011;27980;52.126;5.572;2024-01-30T12:21:10;4.20;;;1.90;;
18249;SDS011;27980;52.126;5.572;2024-01-30T12:23:38;3.95;;;1.70;;
18249;SDS011;27980;52.126;5.572;2024-01-30T12:26:05;4.70;;;1.80;;
18249;SDS011;27980;52.126;5.572;2024-01-30T12:28:32;3.10;;;1.60;;
18249;SDS011;27980;52.126;5.572;2024-01-30T12:31:01;2.92;;;1.45;;
18249;SDS011;27980;52.126;5.572;2024-01-30T12:33:29;3.35;;;1.80;;
18249;SDS011;27980;52.126;5.572;2024-01-30T12:35:56;3.63;;;1.40;;
18249;SDS011;27980;52.126;5.572;2024-01-30T12:38:23;3.25;;;1.88;;
18249;SDS011;27980;52.126;5.572;2024-01-30T12:40:55;4.30;;;1.98;;
18249;SDS011;27980;52.126;5.572;2024-01-30T12:43:22;3.67;;;2.10;;
18249;SDS011;27980;52.126;5.572;2024-01-30T12:45:48;5.28;;;2.08;;
18249;SDS011;27980;52.126;5.572;2024-01-30T12:48:15;2.63;;;2.20;;
18249;SDS011;27980;52.126;5.572;2024-01-30T12:50:41;5.75;;;2.47;;
18249;SDS011;27980;52.126;5.572;2024-01-30T12:53:08;5.63;;;2.63;;
18249;SDS011;27980;52.126;5.572;2024-01-30T12:55:36;5.90;;;2.45;;
18249;SDS011;27980;52.126;5.572;2024-01-30T12:58:04;5.78;;;2.90;;
18249;SDS011;27980;52.126;5.572;2024-01-30T13:00:31;3.17;;;2.17;;
18249;SDS011;27980;52.126;5.572;2024-01-30T13:02:57;6.75;;;2.20;;
18249;SDS011;27980;52.126;5.572;2024-01-30T13:05:24;7.82;;;2.75;;
18249;SDS011;27980;52.126;5.572;2024-01-30T13:07:50;5.57;;;2.15;;
18249;SDS011;27980;52.126;5.572;2024-01-30T13:10:19;5.18;;;2.38;;
18249;SDS011;27980;52.126;5.572;2024-01-30T13:12:46;5.70;;;2.63;;
18249;SDS011;27980;52.126;5.572;2024-01-30T13:15:13;5.20;;;2.50;;
18249;SDS011;27980;52.126;5.572;2024-01-30T13:17:41;4.70;;;2.20;;
18249;SDS011;27980;52.126;5.572;2024-01-30T13:20:09;3.20;;;2.17;;
18249;SDS011;27980;52.126;5.572;2024-01-30T13:22:36;5.70;;;2.45;;
18249;SDS011;27980;52.126;5.572;2024-01-30T13:25:05;4.55;;;2.33;;
18249;SDS011;27980;52.126;5.572;2024-01-30T13:27:32;2.45;;;1.95;;
18249;SDS011;27980;52.126;5.572;2024-01-30T13:29:58;5.65;;;2.10;;
18249;SDS011;27980;52.126;5.572;2024-01-30T13:32:27;6.50;;;3.03;;
18249;SDS011;27980;52.126;5.572;2024-01-30T13:34:53;5.22;;;2.00;;
18249;SDS011;27980;52.126;5.572;2024-01-30T13:37:20;3.28;;;2.35;;
18249;SDS011;27980;52.126;5.572;2024-01-30T13:39:46;5.72;;;2.40;;
18249;SDS011;27980;52.126;5.572;2024-01-30T13:42:13;5.55;;;2.58;;
18249;SDS011;27980;52.126;5.572;2024-01-30T13:44:39;3.67;;;2.45;;
18249;SDS011;27980;52.126;5.572;2024-01-30T13:47:05;3.85;;;2.67;;
18249;SDS011;27980;52.126;5.572;2024-01-30T13:49:34;2.58;;;2.10;;
18249;SDS011;27980;52.126;5.572;2024-01-30T13:52:00;6.25;;;2.35;;
18249;SDS011;27980;52.126;5.572;2024-01-30T13:54:27;4.30;;;1.95;;
18249;SDS011;27980;52.126;5.572;2024-01-30T13:56:54;6.22;;;1.92;;
18249;SDS011;27980;52.126;5.572;2024-01-30T13:59:20;2.20;;;1.50;;
18249;SDS011;27980;52.126;5.572;2024-01-30T14:01:49;4.90;;;1.60;;
18249;SDS011;27980;52.126;5.572;2024-01-30T14:04:15;1.63;;;1.10;;
18249;SDS011;27980;52.126;5.572;2024-01-30T14:06:43;2.67;;;1.08;;
18249;SDS011;27980;52.126;5.572;2024-01-30T14:09:10;2.85;;;0.77;;
18249;SDS011;27980;52.126;5.572;2024-01-30T14:11:38;1.25;;;0.88;;
18249;SDS011;27980;52.126;5.572;2024-01-30T14:14:04;1.63;;;0.70;;
18249;SDS011;27980;52.126;5.572;2024-01-30T14:16:31;1.85;;;0.95;;
18249;SDS011;27980;52.126;5.572;2024-01-30T14:18:57;1.05;;;0.82;;
18249;SDS011;27980;52.126;5.572;2024-01-30T14:21:24;1.15;;;0.95;;
18249;SDS011;27980;52.126;5.572;2024-01-30T14:23:52;2.65;;;0.80;;
18249;SDS011;27980;52.126;5.572;2024-01-30T14:26:18;2.30;;;0.93;;
18249;SDS011;27980;52.126;5.572;2024-01-30T14:28:46;1.35;;;0.70;;
18249;SDS011;27980;52.126;5.572;2024-01-30T14:31:12;3.25;;;0.90;;
18249;SDS011;27980;52.126;5.572;2024-01-30T14:33:39;5.25;;;1.23;;
18249;SDS011;27980;52.126;5.572;2024-01-30T14:36:05;0.93;;;0.90;;